Humberston, United Kingdom
Current Conditions -  °F | °C
As of 2:50 AM on Friday 19 Dec 2014 (Local Time) from EGXS Reporting Station
Broken Clouds Broken Clouds  
Wind Chill: 45°   Ceiling: 1400
Heat Index: 48°   Visibility: 6mi
Dew Point: 46°   Wind: 8mph
Humidity: 93%   Direction: 260°W
Pressure: 29.65"   Gusts: NA
Location:  53.53°N, 0.02°W
Report Text: EGXS 190250Z AUTO 26007KT 9999 // BKN014/// BKN050/// 09/08 Q1004
Loading
Personal Weather Stations






























Interactive Weather Map New forecast layout! Learn more

10-Day Weather Forecast

Advertisements
Track Severe Weather on mobile